Hub


Voltar

 INFORMAÇÕES METEOROLÓGICAS

METAR FOR KMEV


ADDS - METARS form results

(0749 UTC 25 August 2019)
Data provider http://aviationweather.gov/metar/data/
 
METAR text: KMEV 250735Z AUTO 08005KT 10SM CLR 17/09 A3016 RMK AO2
Conditions at: KMEV (MINDEN , NV, US) observed 0735 UTC 25 August 2019
Temperature: 17.0°C (63°F)
Dewpoint: 9.0°C (48°F) [RH = 59%]
Pressure (altimeter): 30.16 inches Hg (1021.4 mb)
Winds: from the E (80 degrees) at 6 MPH (5 knots; 2.6 m/s)
Visibility: 10 or more miles (16+ km)
Ceiling: at least 12,000 feet AGL
Clouds: sky clear below 12,000 feet AGL
Weather: automated observation with no human augmentation;
there may or may not be significant weather present at this time

METAR text: KMEV 250715Z AUTO 08009KT 10SM CLR 19/08 A3015 RMK AO2
Conditions at: KMEV (MINDEN , NV, US) observed 0715 UTC 25 August 2019
Temperature: 19.0°C (66°F)
Dewpoint: 8.0°C (46°F) [RH = 49%]
Pressure (altimeter): 30.15 inches Hg (1021.1 mb)
Winds: from the E (80 degrees) at 10 MPH (9 knots; 4.6 m/s)
Visibility: 10 or more miles (16+ km)
Ceiling: at least 12,000 feet AGL
Clouds: sky clear below 12,000 feet AGL
Weather: automated observation with no human augmentation;
there may or may not be significant weather present at this time

METAR text: KMEV 250655Z AUTO 09007KT 10SM CLR 18/08 A3015 RMK AO2
Conditions at: KMEV (MINDEN , NV, US) observed 0655 UTC 25 August 2019
Temperature: 18.0°C (64°F)
Dewpoint: 8.0°C (46°F) [RH = 52%]
Pressure (altimeter): 30.15 inches Hg (1021.1 mb)
Winds: from the E (90 degrees) at 8 MPH (7 knots; 3.6 m/s)
Visibility: 10 or more miles (16+ km)
Ceiling: at least 12,000 feet AGL
Clouds: sky clear below 12,000 feet AGL
Weather: automated observation with no human augmentation;
there may or may not be significant weather present at this time

Forecast for: KMEV (MINDEN , NV, US)
Text: KMEV 250520Z 2506/2606 12005KT P6SM SKC
Forecast period: 0600 to 1800 UTC 25 August 2019
Forecast type: FROM: standard forecast or significant change
Winds: from the ESE (120 degrees) at 6 MPH (5 knots; 2.6 m/s)
Visibility: 6 or more miles 10+ km)
Clouds: clear skies
Weather: no significant weather forecast for this period
Text: FM251800 28008KT P6SM SKC
Forecast period: 1800 to 2100 UTC 25 August 2019
Forecast type: FROM: standard forecast or significant change
Winds: from the W (280 degrees) at 9 MPH (8 knots; 4.1 m/s)
Visibility: 6 or more miles 10+ km)
Clouds: clear skies
Weather: no significant weather forecast for this period
Text: FM252100 28011G19KT P6SM FEW250
Forecast period: 2100 UTC 25 August 2019 to 0600 UTC 26 August 2019
Forecast type: FROM: standard forecast or significant change
Winds: from the W (280 degrees) at 13 MPH (11 knots; 5.7 m/s)
gusting to 22 MPH (19 knots; 9.8 m/s)
Visibility: 6 or more miles 10+ km)
Ceiling: at least 12,000 feet AGL
Clouds: few clouds at 25000 feet AGL
Weather: no significant weather forecast for this period


 MAPA DO AEROPORTO


 INFORMAÇÕES DA PISTA

Pista 12 Tamanho da pista 5300 ft Largura da pista 75 ft
Elevação da pista 4700 ft Ranhura da pista 0 ft Proa da pista 135
Pista 30 Tamanho da pista 5300 ft Largura da pista 75 ft
Elevação da pista 4722 ft Ranhura da pista 0 ft Proa da pista 315
Pista 12G Tamanho da pista 2200 ft Largura da pista 60 ft
Elevação da pista 0 ft Ranhura da pista 0 ft Proa da pista 0
Pista 30G Tamanho da pista 2200 ft Largura da pista 60 ft
Elevação da pista 0 ft Ranhura da pista 0 ft Proa da pista 0
Pista 16 Tamanho da pista 7400 ft Largura da pista 100 ft
Elevação da pista 4708 ft Ranhura da pista 0 ft Proa da pista 180
Pista 34 Tamanho da pista 7400 ft Largura da pista 100 ft
Elevação da pista 4717 ft Ranhura da pista 0 ft Proa da pista 360

 FREQUÊNCIAS DO AEROPORTO

Tipo A/D Nome RENO APP/D Frequência 119.2 MHZ
Tipo AWOS Nome AWOS 3 Frequência 119.325 MHZ
Tipo UNIC Nome CTAF/UNICO Frequência 122.8 MHZ

 AUXÍLIOS DE NAVEGAÇÃO PRÓXIMOS AO AEROPORTO